Time;durP1;ratioP1;P1;durP2;ratioP2;P2;SDS_P1;SDS_P2;PMS_P1;PMS_P2;Temp;Humidity;BMP_temperature;BMP_pressure;BME280_temperature;BME280_humidity;BME280_pressure;Samples;Min_cycle;Max_cycle;Signal;HPM_P1;HPM_P2
2021/06/20 00:01:26;;;;;;;5.68;2.70;;;23.80;74.10;;;;;;5015721;28;20072;-41
2021/06/20 00:03:52;;;;;;;5.97;2.55;;;23.70;73.90;;;;;;5015655;28;20080;-44
2021/06/20 00:06:38;;;;;;;7.68;2.65;;;23.70;74.20;;;;;;5015933;28;20319;-41
2021/06/20 00:09:11;;;;;;;4.07;2.33;;;23.70;74.10;;;;;;5015710;28;20414;-41
2021/06/20 00:11:39;;;;;;;6.10;2.70;;;23.60;74.20;;;;;;5016673;28;20034;-43
2021/06/20 00:14:06;;;;;;;6.13;2.38;;;23.60;73.80;;;;;;5019631;28;20330;-41
2021/06/20 00:16:33;;;;;;;5.53;2.58;;;23.60;73.70;;;;;;5019106;28;20307;-41
2021/06/20 00:18:59;;;;;;;5.97;2.60;;;23.50;73.70;;;;;;5019236;28;20042;-42
2021/06/20 00:21:26;;;;;;;7.85;2.55;;;23.50;73.50;;;;;;5018217;28;20034;-43
2021/06/20 00:23:52;;;;;;;7.63;2.65;;;23.50;73.20;;;;;;5017861;28;20480;-43
2021/06/20 00:26:18;;;;;;;3.83;2.72;;;23.50;72.90;;;;;;5018148;28;20033;-43
2021/06/20 00:28:44;;;;;;;5.95;2.67;;;23.50;72.80;;;;;;5017710;28;20030;-41
2021/06/20 00:31:10;;;;;;;4.63;2.25;;;23.50;72.70;;;;;;5017910;28;20394;-43
2021/06/20 00:33:36;;;;;;;6.43;2.25;;;23.40;72.50;;;;;;5017292;28;20041;-42
2021/06/20 00:36:02;;;;;;;6.75;2.30;;;23.40;72.00;;;;;;5033200;28;20034;-41
2021/06/20 00:38:28;;;;;;;10.30;2.40;;;23.40;72.20;;;;;;5017149;28;20414;-44
2021/06/20 00:40:54;;;;;;;5.05;2.38;;;23.40;72.00;;;;;;5017815;28;20030;-43
2021/06/20 00:43:19;;;;;;;4.13;2.38;;;23.40;72.10;;;;;;5017154;28;20394;-43
2021/06/20 00:45:46;;;;;;;4.82;2.13;;;23.40;71.70;;;;;;5017733;28;20029;-42
2021/06/20 00:48:12;;;;;;;7.88;2.50;;;23.40;71.80;;;;;;5017476;28;20425;-42
2021/06/20 00:50:37;;;;;;;5.82;2.65;;;23.40;71.70;;;;;;5017672;28;20117;-42
2021/06/20 00:53:04;;;;;;;7.00;2.55;;;23.40;71.40;;;;;;5016907;28;20030;-43
2021/06/20 00:55:37;;;;;;;6.75;2.53;;;23.40;71.40;;;;;;5017948;28;20318;-43
2021/06/20 00:58:03;;;;;;;11.75;2.50;;;23.40;71.50;;;;;;5017222;28;20386;-43
2021/06/20 01:00:29;;;;;;;9.77;2.30;;;23.40;71.50;;;;;;5017374;28;20365;-42
2021/06/20 01:02:55;;;;;;;5.10;2.08;;;23.40;71.60;;;;;;5017170;28;20063;-42
2021/06/20 01:05:21;;;;;;;3.47;2.28;;;23.30;71.30;;;;;;5017187;28;20026;-43
2021/06/20 01:07:54;;;;;;;6.93;2.53;;;23.30;71.20;;;;;;5016958;28;20438;-41
2021/06/20 01:10:23;;;;;;;4.78;2.67;;;23.40;71.10;;;;;;5017475;28;20154;-41
2021/06/20 01:12:49;;;;;;;7.47;2.85;;;23.30;71.00;;;;;;5016869;28;20042;-41
2021/06/20 01:15:16;;;;;;;3.88;2.20;;;23.30;70.90;;;;;;5016827;28;20048;-43
2021/06/20 01:17:43;;;;;;;4.97;2.22;;;23.30;70.90;;;;;;5016911;28;20081;-42
2021/06/20 01:20:15;;;;;;;7.20;2.47;;;23.30;71.10;;;;;;5014208;28;89918;-41
2021/06/20 01:22:44;;;;;;;5.25;2.50;;;23.30;70.90;;;;;;5017505;28;20037;-43
2021/06/20 01:25:16;;;;;;;2.70;2.20;;;23.30;70.50;;;;;;5018202;28;20415;-43
2021/06/20 01:27:45;;;;;;;11.30;2.30;;;23.30;70.60;;;;;;5017418;28;20136;-42
2021/06/20 01:30:18;;;;;;;5.60;2.40;;;23.30;70.40;;;;;;5018041;28;20057;-45
2021/06/20 01:32:43;;;;;;;4.47;2.10;;;23.30;70.30;;;;;;5017438;28;20073;-44
2021/06/20 01:35:11;;;;;;;3.17;2.15;;;23.30;70.50;;;;;;5017933;28;20033;-43
2021/06/20 01:37:37;;;;;;;2.42;1.95;;;23.30;70.40;;;;;;5017216;28;20109;-42
2021/06/20 01:40:06;;;;;;;4.32;2.17;;;23.30;70.80;;;;;;5017790;28;20322;-42
2021/06/20 01:42:32;;;;;;;4.95;2.25;;;23.30;70.30;;;;;;5017163;28;20061;-41
2021/06/20 01:44:58;;;;;;;6.03;2.17;;;23.30;69.90;;;;;;5017593;28;20414;-42
2021/06/20 01:47:28;;;;;;;4.35;2.33;;;23.30;69.70;;;;;;5016995;28;20029;-41
2021/06/20 01:49:57;;;;;;;3.90;2.25;;;23.30;69.40;;;;;;5017612;28;20326;-41
2021/06/20 01:52:24;;;;;;;6.80;2.30;;;23.30;69.50;;;;;;5017200;28;20081;-43
2021/06/20 01:54:51;;;;;;;6.90;2.30;;;23.30;69.30;;;;;;5017433;28;20022;-42
2021/06/20 01:57:22;;;;;;;3.95;1.95;;;23.30;69.20;;;;;;5017339;28;20034;-46
2021/06/20 01:59:48;;;;;;;3.80;2.22;;;23.30;69.10;;;;;;5017254;28;20088;-44
2021/06/20 02:02:14;;;;;;;6.80;2.25;;;23.20;69.20;;;;;;5017372;28;20307;-41
2021/06/20 02:04:40;;;;;;;7.18;2.15;;;23.20;69.20;;;;;;5017356;28;20030;-41
2021/06/20 02:07:08;;;;;;;4.72;2.33;;;23.20;69.10;;;;;;5017429;28;20299;-42
2021/06/20 02:09:34;;;;;;;5.07;2.53;;;23.20;68.20;;;;;;5016802;28;20438;-43
2021/06/20 02:11:59;;;;;;;4.85;2.25;;;23.20;68.20;;;;;;5017218;28;20034;-42
2021/06/20 02:14:25;;;;;;;4.82;2.38;;;23.20;67.90;;;;;;5017276;28;20121;-42
2021/06/20 02:16:51;;;;;;;4.60;2.38;;;23.20;67.80;;;;;;5016622;28;20105;-42
2021/06/20 02:19:17;;;;;;;5.05;2.53;;;23.20;67.90;;;;;;5016355;28;20337;-42
2021/06/20 02:21:42;;;;;;;9.18;2.85;;;23.20;67.80;;;;;;5016953;28;20077;-44
2021/06/20 02:24:08;;;;;;;5.50;2.40;;;23.20;67.90;;;;;;5017018;28;20022;-43
2021/06/20 02:26:34;;;;;;;5.55;2.42;;;23.20;67.90;;;;;;5017083;28;20040;-43
2021/06/20 02:29:00;;;;;;;6.25;2.10;;;23.30;67.90;;;;;;5016724;28;20334;-42
2021/06/20 02:31:25;;;;;;;4.55;2.47;;;23.20;67.80;;;;;;5016799;28;20030;-41
2021/06/20 02:33:51;;;;;;;9.23;1.92;;;23.30;67.80;;;;;;5016134;28;20036;-41
2021/06/20 02:36:17;;;;;;;4.05;2.10;;;23.30;67.70;;;;;;5016961;28;20034;-42
2021/06/20 02:38:42;;;;;;;5.90;2.10;;;23.30;67.80;;;;;;5016262;28;20102;-41
2021/06/20 02:41:08;;;;;;;3.95;2.10;;;23.30;68.10;;;;;;5016717;28;20026;-41
2021/06/20 02:43:34;;;;;;;4.45;2.33;;;23.20;67.80;;;;;;5016523;28;20076;-42
2021/06/20 02:45:59;;;;;;;5.90;2.38;;;23.30;67.60;;;;;;5016772;28;20044;-42
2021/06/20 02:48:25;;;;;;;5.28;2.20;;;23.30;67.80;;;;;;5016387;28;20038;-41
2021/06/20 02:50:51;;;;;;;3.17;2.05;;;23.30;67.80;;;;;;5016811;28;20084;-42
2021/06/20 02:53:16;;;;;;;6.93;2.40;;;23.30;67.50;;;;;;5016159;28;20026;-42
2021/06/20 02:55:44;;;;;;;11.02;2.20;;;23.40;67.50;;;;;;5016427;28;20033;-41
2021/06/20 02:58:10;;;;;;;4.80;2.35;;;23.40;67.50;;;;;;5015906;28;20022;-41
2021/06/20 03:00:36;;;;;;;5.00;1.90;;;23.40;67.20;;;;;;5016240;28;20026;-42
2021/06/20 03:03:02;;;;;;;6.95;2.22;;;23.40;67.20;;;;;;5015990;28;20462;-42
2021/06/20 03:05:28;;;;;;;4.50;1.90;;;23.40;67.20;;;;;;5016553;28;20066;-41
2021/06/20 03:07:53;;;;;;;3.13;1.98;;;23.40;67.30;;;;;;5015831;28;20133;-43
2021/06/20 03:10:19;;;;;;;5.68;1.75;;;23.50;66.80;;;;;;5016237;28;20026;-41
2021/06/20 03:12:45;;;;;;;5.50;1.92;;;23.50;66.70;;;;;;5016006;28;20314;-41
2021/06/20 03:15:11;;;;;;;4.97;1.90;;;23.50;66.60;;;;;;5016387;28;20029;-43
2021/06/20 03:17:37;;;;;;;7.40;2.08;;;23.50;66.30;;;;;;5015822;28;20034;-44
2021/06/20 03:20:04;;;;;;;2.63;1.95;;;23.50;66.00;;;;;;5015792;28;20480;-43
2021/06/20 03:22:30;;;;;;;2.90;1.92;;;23.50;65.80;;;;;;5015607;28;20059;-43
2021/06/20 03:24:56;;;;;;;7.55;1.80;;;23.50;66.30;;;;;;5016092;28;20029;-42
2021/06/20 03:27:22;;;;;;;4.72;1.88;;;23.50;65.40;;;;;;5030910;28;20090;-42
2021/06/20 03:29:48;;;;;;;3.88;1.90;;;23.60;65.10;;;;;;5016000;28;20025;-42
2021/06/20 03:32:16;;;;;;;5.30;1.75;;;23.60;65.20;;;;;;5016082;28;20037;-43
2021/06/20 03:34:42;;;;;;;5.00;1.60;;;23.60;65.00;;;;;;5015817;28;20069;-42
2021/06/20 03:37:07;;;;;;;5.32;2.22;;;23.60;65.00;;;;;;5015744;28;20030;-44
2021/06/20 03:39:34;;;;;;;2.88;2.00;;;23.60;64.70;;;;;;5016103;28;20085;-43
2021/06/20 03:42:00;;;;;;;4.18;1.70;;;23.70;64.50;;;;;;5015396;28;20084;-41
2021/06/20 03:44:26;;;;;;;3.17;1.40;;;23.70;64.40;;;;;;5015777;28;20030;-43
2021/06/20 03:46:52;;;;;;;5.50;2.10;;;23.70;64.50;;;;;;5017392;28;20049;-41
2021/06/20 03:49:18;;;;;;;5.53;1.80;;;23.80;64.50;;;;;;5019553;28;20073;-42
2021/06/20 03:51:43;;;;;;;5.20;1.90;;;23.80;64.50;;;;;;5019295;28;20049;-46
2021/06/20 03:54:09;;;;;;;6.00;1.90;;;23.80;63.70;;;;;;5020010;28;20049;-43
2021/06/20 03:56:35;;;;;;;5.47;2.10;;;23.80;63.90;;;;;;5019474;28;20068;-41
2021/06/20 03:59:01;;;;;;;6.95;1.90;;;23.90;63.80;;;;;;5019305;28;20040;-41
2021/06/20 04:01:27;;;;;;;5.95;1.92;;;23.90;63.70;;;;;;5019737;28;20033;-41
2021/06/20 04:03:53;;;;;;;5.03;1.80;;;24.00;63.20;;;;;;5019548;28;20080;-43
2021/06/20 04:06:18;;;;;;;6.28;2.13;;;24.00;63.00;;;;;;5019699;28;20407;-42
2021/06/20 04:08:44;;;;;;;5.13;1.73;;;24.00;62.80;;;;;;5019346;28;20026;-41
2021/06/20 04:11:10;;;;;;;5.45;1.80;;;24.10;63.10;;;;;;5019643;28;20026;-42
2021/06/20 04:13:35;;;;;;;4.00;2.05;;;24.10;63.00;;;;;;5019039;28;20030;-40
2021/06/20 04:16:01;;;;;;;3.30;1.95;;;24.10;62.90;;;;;;5019633;28;20038;-40
2021/06/20 04:18:27;;;;;;;4.30;1.80;;;24.10;62.60;;;;;;5018794;28;20038;-42
2021/06/20 04:20:52;;;;;;;4.63;2.20;;;24.10;62.60;;;;;;5019043;28;20239;-43
2021/06/20 04:23:18;;;;;;;6.63;2.10;;;24.10;62.10;;;;;;5018699;28;20527;-40
2021/06/20 04:25:44;;;;;;;4.05;2.00;;;24.10;61.90;;;;;;5019406;28;20037;-40
2021/06/20 04:28:10;;;;;;;7.57;2.10;;;24.10;62.20;;;;;;5018606;28;20041;-41
2021/06/20 04:30:35;;;;;;;5.50;1.65;;;24.20;62.40;;;;;;5019170;28;20038;-43
2021/06/20 04:33:03;;;;;;;8.68;2.40;;;24.20;62.30;;;;;;5018702;28;20250;-40
2021/06/20 04:35:28;;;;;;;10.95;1.88;;;24.20;62.30;;;;;;5019070;28;20523;-40
2021/06/20 04:37:54;;;;;;;1.60;1.40;;;24.20;61.90;;;;;;5018772;28;20030;-41
2021/06/20 04:40:22;;;;;;;3.17;1.50;;;24.30;61.60;;;;;;5018815;28;20026;-40
2021/06/20 04:43:04;;;;;;;3.72;1.73;;;24.30;61.50;;;;;;5018667;28;20026;-40
2021/06/20 04:45:30;;;;;;;5.47;1.75;;;24.30;61.50;;;;;;5018997;28;20453;-41
2021/06/20 04:47:55;;;;;;;6.20;2.00;;;24.30;61.30;;;;;;5018692;28;20026;-42
2021/06/20 04:50:21;;;;;;;5.60;1.70;;;24.40;61.30;;;;;;5018898;28;20036;-41
2021/06/20 04:52:47;;;;;;;2.70;1.75;;;24.40;60.40;;;;;;5018181;28;20053;-41
2021/06/20 04:55:14;;;;;;;5.03;1.60;;;24.40;60.40;;;;;;5018735;28;20033;-43
2021/06/20 04:57:41;;;;;;;5.10;1.80;;;24.50;60.60;;;;;;5017900;28;20034;-41
2021/06/20 05:00:08;;;;;;;3.35;1.70;;;24.50;60.20;;;;;;5018595;28;20080;-41
2021/06/20 05:02:34;;;;;;;5.20;1.90;;;24.50;60.00;;;;;;5017542;28;20448;-40
2021/06/20 05:05:01;;;;;;;3.33;1.60;;;24.60;59.80;;;;;;5018259;28;20034;-41
2021/06/20 05:07:27;;;;;;;4.15;1.70;;;24.60;59.80;;;;;;5017979;28;20034;-41
2021/06/20 05:09:52;;;;;;;6.97;1.83;;;24.60;59.60;;;;;;5018335;28;20317;-41
2021/06/20 05:12:18;;;;;;;4.85;1.63;;;24.70;59.50;;;;;;5018236;28;20418;-40
2021/06/20 05:14:45;;;;;;;4.32;1.77;;;24.70;59.60;;;;;;5018374;28;20037;-40
2021/06/20 05:17:13;;;;;;;7.55;2.10;;;24.80;60.00;;;;;;5017949;28;20037;-41
2021/06/20 05:19:39;;;;;;;4.25;1.70;;;24.90;59.80;;;;;;5017738;28;20128;-42
2021/06/20 05:22:05;;;;;;;4.47;1.48;;;25.00;59.80;;;;;;5017986;28;20037;-40
2021/06/20 05:24:31;;;;;;;15.77;2.97;;;25.10;59.60;;;;;;5018071;28;20409;-40
2021/06/20 05:26:57;;;;;;;4.30;1.63;;;25.10;59.40;;;;;;5017519;28;20073;-40
2021/06/20 05:29:22;;;;;;;2.55;1.60;;;25.20;59.20;;;;;;5018053;28;20310;-42
2021/06/20 05:31:48;;;;;;;7.95;1.58;;;25.20;58.50;;;;;;5017776;28;20048;-43
2021/06/20 05:34:14;;;;;;;2.00;1.30;;;25.20;58.10;;;;;;5017281;28;20026;-44
2021/06/20 05:36:40;;;;;;;5.55;1.77;;;25.20;58.10;;;;;;5017437;28;20069;-42
2021/06/20 05:39:06;;;;;;;5.25;1.70;;;25.30;57.90;;;;;;5017184;28;20042;-43
2021/06/20 05:41:32;;;;;;;6.55;1.70;;;25.30;57.90;;;;;;5017522;28;20034;-43
2021/06/20 05:43:57;;;;;;;3.30;1.73;;;25.30;57.90;;;;;;5017273;28;20322;-42
2021/06/20 05:46:23;;;;;;;9.63;1.90;;;25.30;58.10;;;;;;5017251;28;20494;-42
2021/06/20 05:48:49;;;;;;;6.07;1.58;;;25.30;57.70;;;;;;5016982;28;20117;-41
2021/06/20 05:51:15;;;;;;;6.07;1.52;;;25.30;57.30;;;;;;5017339;28;20046;-42
2021/06/20 05:53:42;;;;;;;4.50;1.63;;;25.30;57.10;;;;;;5016563;28;20033;-44
2021/06/20 05:56:07;;;;;;;6.03;2.15;;;25.40;57.40;;;;;;5017183;28;20033;-45
2021/06/20 05:58:33;;;;;;;4.07;1.67;;;25.40;57.80;;;;;;5016385;28;20303;-40
2021/06/20 06:00:59;;;;;;;13.85;3.47;;;25.40;57.40;;;;;;5032612;28;20038;-42
2021/06/20 06:03:25;;;;;;;6.90;1.98;;;25.40;57.60;;;;;;5016523;28;20033;-45
2021/06/20 06:05:50;;;;;;;5.38;1.67;;;25.40;58.00;;;;;;5017322;28;20376;-41
2021/06/20 06:08:16;;;;;;;6.07;1.77;;;25.40;57.80;;;;;;5016324;28;20499;-46
2021/06/20 06:10:42;;;;;;;10.82;1.98;;;25.50;57.80;;;;;;5031607;28;20061;-41
2021/06/20 06:13:08;;;;;;;45.92;23.17;;;25.50;57.30;;;;;;5016454;28;20321;-42
2021/06/20 06:15:33;;;;;;;18.38;8.80;;;25.50;57.00;;;;;;5016953;28;20037;-42
2021/06/20 06:17:59;;;;;;;8.07;4.13;;;25.50;57.00;;;;;;5016096;28;20041;-42
2021/06/20 06:20:27;;;;;;;17.92;7.82;;;25.60;56.90;;;;;;5016371;28;20046;-43
2021/06/20 06:22:55;;;;;;;14.65;9.32;;;25.60;56.80;;;;;;5016129;28;20105;-43
2021/06/20 06:25:20;;;;;;;14.73;10.18;;;25.60;57.10;;;;;;5016780;28;20068;-41
2021/06/20 06:27:47;;;;;;;9.73;6.30;;;25.60;57.00;;;;;;5015613;28;20115;-41
2021/06/20 06:30:13;;;;;;;26.85;18.35;;;25.50;56.80;;;;;;5016697;28;20034;-42
2021/06/20 06:32:41;;;;;;;15.68;11.23;;;25.50;56.50;;;;;;5016174;28;20038;-41
2021/06/20 06:35:07;;;;;;;15.98;9.18;;;25.50;56.50;;;;;;5016467;28;20061;-43
2021/06/20 06:37:34;;;;;;;4.50;3.47;;;25.50;57.20;;;;;;5016248;28;20030;-43
2021/06/20 06:39:59;;;;;;;9.25;4.25;;;25.60;56.50;;;;;;5016242;28;20030;-41
2021/06/20 06:42:27;;;;;;;7.43;3.10;;;25.60;56.80;;;;;;5016152;28;20033;-44
2021/06/20 06:44:53;;;;;;;4.68;2.08;;;25.60;57.10;;;;;;5016349;28;20026;-42
2021/06/20 06:47:20;;;;;;;9.20;2.55;;;25.70;56.70;;;;;;5016009;28;20046;-43
2021/06/20 06:49:47;;;;;;;9.07;4.20;;;25.70;56.30;;;;;;5016103;28;20041;-41
2021/06/20 06:52:13;;;;;;;5.57;2.70;;;25.70;56.30;;;;;;5016371;28;20042;-42
2021/06/20 06:54:38;;;;;;;8.55;2.50;;;25.80;56.50;;;;;;5016131;28;20032;-44
2021/06/20 06:57:04;;;;;;;14.07;2.92;;;25.80;55.70;;;;;;5015573;28;20041;-43
2021/06/20 06:59:30;;;;;;;4.90;2.28;;;25.90;55.50;;;;;;5016002;28;20417;-44
2021/06/20 07:01:57;;;;;;;5.25;2.42;;;25.90;55.70;;;;;;5016055;28;20303;-43
2021/06/20 07:04:22;;;;;;;8.15;2.60;;;25.90;55.90;;;;;;5015796;28;20099;-43
2021/06/20 07:06:49;;;;;;;8.38;2.30;;;26.00;56.20;;;;;;5016101;28;20073;-45
2021/06/20 07:09:14;;;;;;;14.07;2.55;;;26.00;56.80;;;;;;5015826;28;20061;-42
2021/06/20 07:11:40;;;;;;;4.93;2.40;;;26.10;57.00;;;;;;5016123;28;20115;-42
2021/06/20 07:14:06;;;;;;;4.70;2.42;;;26.10;56.80;;;;;;5016132;28;20038;-43
2021/06/20 07:16:32;;;;;;;10.18;2.55;;;26.20;56.70;;;;;;5015762;28;20034;-43
2021/06/20 07:18:57;;;;;;;12.63;3.08;;;26.20;55.80;;;;;;5015871;28;20124;-43
2021/06/20 07:21:23;;;;;;;9.73;2.67;;;26.30;55.80;;;;;;5015357;28;20128;-42
2021/06/20 07:23:49;;;;;;;7.72;2.30;;;26.20;55.80;;;;;;5015270;28;20030;-41
2021/06/20 07:26:15;;;;;;;8.88;2.40;;;26.30;55.90;;;;;;5015933;28;20309;-43
2021/06/20 07:28:40;;;;;;;8.90;2.10;;;26.30;55.70;;;;;;5015758;28;20326;-44
2021/06/20 07:31:06;;;;;;;4.97;2.03;;;26.40;55.80;;;;;;5015494;28;20042;-43
2021/06/20 07:33:32;;;;;;;7.03;2.10;;;26.40;55.60;;;;;;5015394;28;20022;-43
2021/06/20 07:35:57;;;;;;;7.40;2.53;;;26.40;55.50;;;;;;5015794;28;20121;-43
2021/06/20 07:38:24;;;;;;;8.85;2.42;;;26.50;54.50;;;;;;5015474;28;20030;-43
2021/06/20 07:40:50;;;;;;;11.75;2.70;;;26.50;54.90;;;;;;5015879;28;20030;-41
2021/06/20 07:43:16;;;;;;;9.23;2.17;;;26.50;54.70;;;;;;5015110;28;20030;-42
2021/06/20 07:45:42;;;;;;;8.38;2.15;;;26.60;54.40;;;;;;5015739;28;20030;-43
2021/06/20 07:48:08;;;;;;;6.60;1.92;;;26.60;54.40;;;;;;5015175;28;20022;-41
2021/06/20 07:50:35;;;;;;;7.47;1.85;;;26.60;54.60;;;;;;5015557;28;20080;-44
2021/06/20 07:53:00;;;;;;;7.28;2.30;;;26.70;55.30;;;;;;5015023;28;20033;-44
2021/06/20 07:55:26;;;;;;;8.55;2.00;;;26.70;54.70;;;;;;5030847;28;20026;-44
2021/06/20 07:57:52;;;;;;;6.03;2.33;;;26.80;54.80;;;;;;5015027;28;20037;-42
2021/06/20 08:00:19;;;;;;;10.10;2.08;;;26.80;54.90;;;;;;5015150;28;20030;-45
2021/06/20 08:02:45;;;;;;;8.43;1.92;;;26.90;54.20;;;;;;5014963;28;20033;-42
2021/06/20 08:05:11;;;;;;;9.90;3.15;;;26.90;54.00;;;;;;5015137;28;20026;-44
2021/06/20 08:07:37;;;;;;;8.10;2.50;;;27.00;54.00;;;;;;5014895;28;20414;-42
2021/06/20 08:10:04;;;;;;;12.20;2.47;;;27.00;53.90;;;;;;5015595;28;20114;-41
2021/06/20 08:12:31;;;;;;;12.10;3.00;;;27.10;53.40;;;;;;5030401;28;20053;-42
2021/06/20 08:14:57;;;;;;;8.48;2.17;;;27.10;53.20;;;;;;5015275;28;20033;-41
2021/06/20 08:17:24;;;;;;;10.00;2.75;;;27.20;53.50;;;;;;5014409;28;20038;-41
2021/06/20 08:19:50;;;;;;;16.27;2.13;;;27.20;53.40;;;;;;5014679;28;20042;-42
2021/06/20 08:22:18;;;;;;;6.85;2.25;;;27.30;53.40;;;;;;5015016;28;20113;-43
2021/06/20 08:24:45;;;;;;;7.35;2.20;;;27.30;53.80;;;;;;5015460;28;20033;-43
2021/06/20 08:27:10;;;;;;;9.27;2.22;;;27.40;53.40;;;;;;5014852;28;20038;-44
2021/06/20 08:29:36;;;;;;;7.40;2.75;;;27.50;52.40;;;;;;5014819;28;20029;-42
2021/06/20 08:32:03;;;;;;;7.78;3.00;;;27.60;52.90;;;;;;5015338;28;20069;-42
2021/06/20 08:34:30;;;;;;;7.47;2.20;;;27.60;52.90;;;;;;5018218;28;20113;-43
2021/06/20 08:36:57;;;;;;;5.97;1.80;;;27.70;53.30;;;;;;5018418;28;20111;-41
2021/06/20 08:39:24;;;;;;;6.85;2.00;;;27.80;53.90;;;;;;5017972;28;20414;-42
2021/06/20 08:41:50;;;;;;;8.55;2.47;;;27.90;54.00;;;;;;5018258;28;20034;-40
2021/06/20 08:44:19;;;;;;;8.75;2.10;;;27.90;53.40;;;;;;5018343;28;20026;-45
2021/06/20 08:46:46;;;;;;;7.03;2.20;;;28.00;52.40;;;;;;5018348;28;20421;-45
2021/06/20 08:49:12;;;;;;;8.80;2.30;;;28.00;52.70;;;;;;5018647;28;20053;-42
2021/06/20 08:51:40;;;;;;;5.40;2.08;;;28.10;52.30;;;;;;5018365;28;20029;-41
2021/06/20 08:54:06;;;;;;;15.77;2.60;;;28.10;52.00;;;;;;5018507;28;20034;-43
2021/06/20 08:56:33;;;;;;;7.80;1.85;;;28.10;52.00;;;;;;5017882;28;20076;-40
2021/06/20 08:58:59;;;;;;;10.30;2.75;;;28.10;52.30;;;;;;5018060;28;20037;-41
2021/06/20 09:01:25;;;;;;;8.18;2.22;;;28.10;53.20;;;;;;5018179;28;20026;-42
2021/06/20 09:03:50;;;;;;;7.88;2.17;;;28.20;53.60;;;;;;5018107;28;20064;-41
2021/06/20 09:06:18;;;;;;;8.30;2.20;;;28.20;53.90;;;;;;5018301;28;20115;-42
2021/06/20 09:08:48;;;;;;;12.57;3.42;;;28.20;54.30;;;;;;5018031;28;20048;-41
2021/06/20 09:11:29;;;;;;;8.40;2.17;;;28.20;54.00;;;;;;5018047;28;20034;-42
2021/06/20 09:14:02;;;;;;;9.13;2.28;;;28.20;53.50;;;;;;5017697;28;20033;-40
2021/06/20 09:16:28;;;;;;;9.88;2.25;;;28.20;52.70;;;;;;5017765;28;20169;-41
2021/06/20 09:18:54;;;;;;;10.52;2.60;;;28.20;52.60;;;;;;5018176;28;20018;-42
2021/06/20 09:21:25;;;;;;;9.85;2.75;;;28.20;52.60;;;;;;5017784;28;20448;-42
2021/06/20 09:23:55;;;;;;;7.05;2.10;;;28.20;52.90;;;;;;5017856;28;20033;-43
2021/06/20 09:26:40;;;;;;;;;;;28.30;53.10;;;;;;5018307;28;20322;-42
2021/06/20 09:29:07;;;;;;;6.05;2.38;;;28.30;53.00;;;;;;5013146;28;19995;-43
2021/06/20 09:31:51;;;;;;;14.73;5.72;;;28.30;53.00;;;;;;5017266;28;20334;-42
2021/06/20 09:34:18;;;;;;;11.20;4.65;;;28.40;52.40;;;;;;5017427;28;20033;-43
2021/06/20 09:36:45;;;;;;;19.05;7.20;;;28.40;52.30;;;;;;5017415;28;20029;-40
2021/06/20 09:39:24;;;;;;;9.65;5.50;;;28.50;52.60;;;;;;5016694;28;20430;-43
2021/06/20 09:42:11;;;;;;;12.80;5.47;;;28.60;52.00;;;;;;5017148;28;20076;-40
2021/06/20 09:44:53;;;;;;;12.65;3.10;;;28.60;51.80;;;;;;5015682;28;20121;-42
2021/06/20 09:47:24;;;;;;;6.80;2.85;;;28.60;51.10;;;;;;5017006;28;20042;-41
2021/06/20 09:49:51;;;;;;;7.18;2.83;;;28.60;51.10;;;;;;5016406;28;20038;-45
2021/06/20 09:52:34;;;;;;;10.88;2.58;;;28.70;51.10;;;;;;5016948;28;20053;-42
2021/06/20 09:55:12;;;;;;;9.73;3.33;;;28.80;51.50;;;;;;5016882;28;20052;-42
2021/06/20 09:57:45;;;;;;;8.15;3.38;;;28.90;52.10;;;;;;5015823;28;20465;-42
2021/06/20 10:00:14;;;;;;;10.02;3.28;;;28.90;51.90;;;;;;5016439;28;20034;-41
2021/06/20 10:02:41;;;;;;;8.57;2.25;;;29.00;52.40;;;;;;5015768;28;20050;-42
2021/06/20 10:05:09;;;;;;;8.68;3.75;;;29.10;52.30;;;;;;5031788;28;20026;-43
2021/06/20 10:07:34;;;;;;;7.20;2.15;;;29.20;52.40;;;;;;5015962;28;20430;-41
2021/06/20 10:10:02;;;;;;;12.27;2.88;;;29.20;51.80;;;;;;5015755;28;20111;-42
2021/06/20 10:12:28;;;;;;;4.63;1.90;;;29.20;51.70;;;;;;5016330;28;20034;-44
2021/06/20 10:14:56;;;;;;;9.95;2.60;;;29.30;51.60;;;;;;5016490;28;20061;-43
2021/06/20 10:17:34;;;;;;;9.63;2.75;;;29.40;51.80;;;;;;5016241;28;20115;-42
2021/06/20 10:20:04;;;;;;;6.88;1.73;;;29.50;51.80;;;;;;5016052;28;20096;-42
2021/06/20 10:22:45;;;;;;;10.27;2.40;;;29.50;51.30;;;;;;5016092;28;20028;-41
2021/06/20 10:25:32;;;;;;;6.70;2.25;;;29.60;51.20;;;;;;5016630;28;20077;-42
2021/06/20 10:28:06;;;;;;;8.00;2.00;;;29.70;51.40;;;;;;5015312;28;20049;-44
2021/06/20 10:30:34;;;;;;;9.88;2.22;;;29.80;50.80;;;;;;5016325;28;20115;-45
2021/06/20 10:33:13;;;;;;;8.57;2.55;;;29.80;51.10;;;;;;5015808;28;20162;-42
2021/06/20 10:35:42;;;;;;;9.45;2.17;;;29.90;50.60;;;;;;5016069;28;20030;-43
2021/06/20 10:38:28;;;;;;;4.40;2.37;;;30.00;50.70;;;;;;5015438;28;20026;-41
2021/06/20 10:40:54;;;;;;;6.03;2.20;;;30.10;50.50;;;;;;5016074;28;20038;-41
2021/06/20 10:43:20;;;;;;;5.07;2.35;;;30.20;50.40;;;;;;5015153;28;20026;-41
2021/06/20 10:45:47;;;;;;;7.22;2.10;;;30.20;50.20;;;;;;5016049;28;20105;-41
2021/06/20 10:48:34;;;;;;;9.50;2.97;;;30.30;50.30;;;;;;5015609;28;20105;-44
2021/06/20 10:51:00;;;;;;;4.93;2.40;;;30.40;50.40;;;;;;5016080;28;20041;-42
2021/06/20 10:53:27;;;;;;;7.72;5.80;;;30.40;50.50;;;;;;5014898;28;20041;-41
2021/06/20 10:55:58;;;;;;;11.05;5.80;;;30.40;50.30;;;;;;5015476;28;20096;-41
2021/06/20 10:58:28;;;;;;;11.02;4.03;;;30.50;50.20;;;;;;5015630;28;20017;-41
2021/06/20 11:01:15;;;;;;;5.07;3.22;;;30.50;50.40;;;;;;5016029;28;20092;-44
2021/06/20 11:03:45;;;;;;;3.63;2.28;;;30.60;50.60;;;;;;5015765;28;20033;-43
2021/06/20 11:06:14;;;;;;;7.03;2.75;;;30.70;50.60;;;;;;5016344;28;20061;-44
2021/06/20 11:09:00;;;;;;;7.50;2.80;;;30.80;50.40;;;;;;5015782;28;20068;-44
2021/06/20 11:11:28;;;;;;;4.20;2.17;;;30.80;49.80;;;;;;5016030;28;20034;-43
2021/06/20 11:13:56;;;;;;;5.00;1.73;;;30.80;48.50;;;;;;5015772;28;20065;-43
2021/06/20 11:16:31;;;;;;;2.92;1.95;;;30.80;47.50;;;;;;5016171;28;20036;-43
2021/06/20 11:19:12;;;;;;;5.95;2.40;;;30.80;46.20;;;;;;5014987;28;20045;-43
2021/06/20 11:21:59;;;;;;;5.43;2.20;;;30.70;46.40;;;;;;5015391;28;20054;-43
2021/06/20 11:24:35;;;;;;;6.07;2.53;;;30.70;45.70;;;;;;5015815;28;20021;-44
2021/06/20 11:27:13;;;;;;;5.68;1.75;;;30.70;45.80;;;;;;5015759;28;20030;-43
2021/06/20 11:29:57;;;;;;;4.35;1.63;;;30.70;46.80;;;;;;5015703;28;20050;-42
2021/06/20 11:32:30;;;;;;;11.82;3.08;;;30.70;47.50;;;;;;5015086;28;20057;-44
2021/06/20 11:35:16;;;;;;;8.10;2.13;;;30.70;47.70;;;;;;5015366;28;20105;-47
2021/06/20 11:37:47;;;;;;;3.30;1.83;;;30.70;47.70;;;;;;5030404;28;20386;-44
2021/06/20 11:40:16;;;;;;;5.47;1.90;;;30.80;48.30;;;;;;5015507;28;20084;-45
2021/06/20 11:42:47;;;;;;;3.55;2.00;;;31.00;47.90;;;;;;5015406;28;20104;-42
2021/06/20 11:45:16;;;;;;;4.65;1.75;;;31.20;48.10;;;;;;5015706;28;20054;-44
2021/06/20 11:47:44;;;;;;;3.42;2.17;;;31.30;47.40;;;;;;5015363;28;20037;-43
2021/06/20 11:50:11;;;;;;;8.25;1.92;;;31.50;47.00;;;;;;5015362;28;20030;-44
2021/06/20 11:52:38;;;;;;;7.03;2.20;;;31.70;47.00;;;;;;5014097;28;20033;-42
2021/06/20 11:55:09;;;;;;;6.40;2.35;;;31.90;46.30;;;;;;5015293;28;20410;-43
2021/06/20 11:57:35;;;;;;;6.80;2.05;;;32.10;46.30;;;;;;5014944;28;20037;-48
2021/06/20 12:00:10;;;;;;;9.32;2.10;;;32.20;46.20;;;;;;5015100;28;20030;-46
2021/06/20 12:02:35;;;;;;;2.40;1.40;;;32.40;45.90;;;;;;5015217;28;20036;-45
2021/06/20 12:05:01;;;;;;;4.68;2.10;;;32.50;45.80;;;;;;5030581;28;20022;-42
2021/06/20 12:07:27;;;;;;;3.28;2.35;;;32.60;45.60;;;;;;5015777;28;20049;-46
2021/06/20 12:09:54;;;;;;;5.00;1.90;;;32.70;45.60;;;;;;5019234;28;20026;-44
2021/06/20 12:12:20;;;;;;;4.55;1.88;;;32.80;45.40;;;;;;5018949;28;20430;-44
2021/06/20 12:14:57;;;;;;;4.13;2.00;;;32.90;45.00;;;;;;5019331;28;20029;-45
2021/06/20 12:17:23;;;;;;;2.22;1.95;;;33.00;44.60;;;;;;5018397;28;20061;-43
2021/06/20 12:19:52;;;;;;;7.53;1.92;;;33.00;44.40;;;;;;5018830;28;20072;-43
2021/06/20 12:22:19;;;;;;;12.25;2.95;;;32.90;43.50;;;;;;5018981;28;20042;-45
2021/06/20 12:24:46;;;;;;;6.47;2.28;;;32.90;43.20;;;;;;5019256;28;20036;-43
2021/06/20 12:27:14;;;;;;;14.57;2.97;;;32.80;43.00;;;;;;5018900;28;20030;-45
2021/06/20 12:29:40;;;;;;;4.60;2.50;;;32.70;43.60;;;;;;5019011;28;20041;-43
2021/06/20 12:32:16;;;;;;;7.53;3.95;;;32.60;44.00;;;;;;5018538;28;20029;-42
2021/06/20 12:34:45;;;;;;;4.55;2.40;;;32.50;44.00;;;;;;5019290;28;20104;-44
2021/06/20 12:37:11;;;;;;;25.83;3.28;;;32.40;44.00;;;;;;5018777;28;20033;-47
2021/06/20 12:39:41;;;;;;;5.63;2.22;;;32.30;43.60;;;;;;5018815;28;20431;-43
2021/06/20 12:42:07;;;;;;;4.63;3.13;;;32.20;43.20;;;;;;5018567;28;20026;-47
2021/06/20 12:44:40;;;;;;;7.32;2.22;;;32.20;43.20;;;;;;5018769;28;20029;-42
2021/06/20 12:47:07;;;;;;;7.15;2.55;;;32.30;43.40;;;;;;5018515;28;20041;-45
2021/06/20 12:49:32;;;;;;;5.75;2.53;;;32.40;43.30;;;;;;5018662;28;20026;-44